Aérodrome :
LOGIN :

S'inscrire | Disclaimer

   EN    FR    IT 

 










Légende :    VFR   VFR Marginal   IFR   IFR Intensif   IFR Très Intensif
Visi : 
Plafond : 
>= 8 km
>= 3000ft
5 à 8 km
1000 à 3000 ft
1500m à 5 km
500 à 1000 ft
800 à 1500m
200 à 500 ft
< 800m
< 200 ft
Symboles :   Orages  Brouillard  Fortes neiges  Fortes précipitations  Vent > 20 kt
SIGMETs :   Divers  Orages  Givrage  Turbulence  Onde Orograph.  Cendres Volcan.







- Altitude de l'aérodrome : 440 ft


LPST - Sintra AB

DERNIER METAR :
  • 181500Z 28009KT 5000 -RA BR SCT007 BKN017 10/08 Q1021

METARs EXPIRÉS :
  • 181400Z 29008KT 9999 -RA SCT023 12/07 Q1021

TAF TAF LPST
Valide du 18 à 15h jusqu'au 19 à 00h UTC


181412Z 1815/1824 29010KT 9999 FEW015 BKN025
TEMPO 1815/1821 5000 RADZ SCT005 BKN012
BECMG 1816/1818 20010KT 9000 SCT008 BKN018
PROB40
TEMPO 1818/1821 2000 RADZ BR SCT004 BKN008
BECMG 1821/1823 9999 SCT012
Pas de NOTAMs connus pour ce terrain.



MET'MAP, la Météo Aéronautique d'un coup d'oeil ! - Copyright ORBIFLY Décembre 2007 - Disclaimer

ORBIFLY MET'MAP TEAM :

Programmation & Développement : Alexandra Zaïnal
Conception & Développement : Baudouin d'Aumeries
Co-Programmation & Développement : Marc-Olivier Méhu
Soutien technique & logistique : Manuel Goepfert

Contact : metmap@orbifly.com




SOURCES & CREDITS :

   NOAA